sensor_id;sensor_type;location;lat;lon;timestamp;pressure;altitude;pressure_sealevel;temperature;humidity
21234;BME280;10774;42.178;26.578;2022-08-19T00:01:30;99496.03;;;26.32;67.13
21234;BME280;10774;42.178;26.578;2022-08-19T00:03:58;99498.13;;;26.30;71.34
21234;BME280;10774;42.178;26.578;2022-08-19T00:06:25;99508.75;;;26.47;73.01
21234;BME280;10774;42.178;26.578;2022-08-19T00:08:50;99482.66;;;26.03;75.49
21234;BME280;10774;42.178;26.578;2022-08-19T00:11:16;99509.03;;;25.23;81.44
21234;BME280;10774;42.178;26.578;2022-08-19T00:13:42;99499.66;;;24.83;84.21
21234;BME280;10774;42.178;26.578;2022-08-19T00:16:07;99506.78;;;25.40;81.82
21234;BME280;10774;42.178;26.578;2022-08-19T00:18:33;99501.72;;;25.43;81.42
21234;BME280;10774;42.178;26.578;2022-08-19T00:20:59;99503.44;;;25.51;81.44
21234;BME280;10774;42.178;26.578;2022-08-19T00:23:25;99485.69;;;25.53;80.40
21234;BME280;10774;42.178;26.578;2022-08-19T00:25:51;99501.59;;;25.17;82.13
21234;BME280;10774;42.178;26.578;2022-08-19T00:28:17;99512.47;;;25.38;82.15
21234;BME280;10774;42.178;26.578;2022-08-19T00:30:43;99495.56;;;25.41;81.55
21234;BME280;10774;42.178;26.578;2022-08-19T00:33:09;99486.53;;;25.54;80.34
21234;BME280;10774;42.178;26.578;2022-08-19T00:35:34;99486.94;;;25.51;80.74
21234;BME280;10774;42.178;26.578;2022-08-19T00:38:00;99483.59;;;25.62;79.00
21234;BME280;10774;42.178;26.578;2022-08-19T00:40:26;99497.59;;;25.74;76.63
21234;BME280;10774;42.178;26.578;2022-08-19T00:42:51;99489.63;;;25.79;75.08
21234;BME280;10774;42.178;26.578;2022-08-19T00:45:20;99501.59;;;25.71;78.47
21234;BME280;10774;42.178;26.578;2022-08-19T00:47:46;99502.75;;;25.01;82.65
21234;BME280;10774;42.178;26.578;2022-08-19T00:50:17;99506.13;;;25.03;83.09
21234;BME280;10774;42.178;26.578;2022-08-19T00:52:47;99497.94;;;25.51;80.56
21234;BME280;10774;42.178;26.578;2022-08-19T00:55:19;99509.59;;;25.53;80.35
21234;BME280;10774;42.178;26.578;2022-08-19T00:57:50;99494.09;;;25.39;80.78
21234;BME280;10774;42.178;26.578;2022-08-19T01:00:18;99491.56;;;25.44;80.46
21234;BME280;10774;42.178;26.578;2022-08-19T01:02:45;99505.53;;;25.49;80.52
21234;BME280;10774;42.178;26.578;2022-08-19T01:05:14;99514.88;;;25.54;79.34
21234;BME280;10774;42.178;26.578;2022-08-19T01:07:40;99513.56;;;25.44;76.22
21234;BME280;10774;42.178;26.578;2022-08-19T01:10:10;99509.97;;;25.50;73.55
21234;BME280;10774;42.178;26.578;2022-08-19T01:12:37;99496.47;;;25.48;73.74
21234;BME280;10774;42.178;26.578;2022-08-19T01:15:05;99504.91;;;25.47;73.60
21234;BME280;10774;42.178;26.578;2022-08-19T01:17:31;99512.34;;;25.53;72.98
21234;BME280;10774;42.178;26.578;2022-08-19T01:19:57;99500.81;;;25.36;73.91
21234;BME280;10774;42.178;26.578;2022-08-19T01:24:48;99501.38;;;25.73;74.70
21234;BME280;10774;42.178;26.578;2022-08-19T01:27:14;99501.22;;;25.74;74.33
21234;BME280;10774;42.178;26.578;2022-08-19T01:29:42;99508.16;;;25.70;73.93
21234;BME280;10774;42.178;26.578;2022-08-19T01:32:11;99506.47;;;25.63;72.34
21234;BME280;10774;42.178;26.578;2022-08-19T01:34:37;99508.47;;;25.41;71.91
21234;BME280;10774;42.178;26.578;2022-08-19T01:37:08;99513.94;;;25.41;71.54
21234;BME280;10774;42.178;26.578;2022-08-19T01:39:37;99498.28;;;25.35;71.54
21234;BME280;10774;42.178;26.578;2022-08-19T01:42:04;99502.06;;;25.27;70.93
21234;BME280;10774;42.178;26.578;2022-08-19T01:44:30;99497.22;;;24.66;74.26
21234;BME280;10774;42.178;26.578;2022-08-19T01:46:56;99508.25;;;25.01;72.55
21234;BME280;10774;42.178;26.578;2022-08-19T01:49:24;99506.63;;;25.13;72.49
21234;BME280;10774;42.178;26.578;2022-08-19T01:51:50;99516.38;;;25.16;72.14
21234;BME280;10774;42.178;26.578;2022-08-19T01:54:18;99494.41;;;25.16;72.40
21234;BME280;10774;42.178;26.578;2022-08-19T01:56:43;99498.25;;;25.21;72.06
21234;BME280;10774;42.178;26.578;2022-08-19T01:59:15;99491.94;;;24.65;76.13
21234;BME280;10774;42.178;26.578;2022-08-19T02:01:41;99490.22;;;24.92;75.34
21234;BME280;10774;42.178;26.578;2022-08-19T02:04:07;99489.72;;;24.47;78.03
21234;BME280;10774;42.178;26.578;2022-08-19T02:06:33;99486.34;;;24.80;76.08
21234;BME280;10774;42.178;26.578;2022-08-19T02:08:59;99490.09;;;24.44;78.51
21234;BME280;10774;42.178;26.578;2022-08-19T02:11:28;99479.63;;;24.54;78.18
21234;BME280;10774;42.178;26.578;2022-08-19T02:13:57;99492.41;;;24.68;77.57
21234;BME280;10774;42.178;26.578;2022-08-19T02:16:23;99482.75;;;24.79;76.93
21234;BME280;10774;42.178;26.578;2022-08-19T02:18:49;99488.84;;;24.74;78.22
21234;BME280;10774;42.178;26.578;2022-08-19T02:21:17;99491.69;;;24.60;80.21
21234;BME280;10774;42.178;26.578;2022-08-19T02:23:43;99483.91;;;23.92;84.71
21234;BME280;10774;42.178;26.578;2022-08-19T02:26:09;99486.47;;;24.15;83.94
21234;BME280;10774;42.178;26.578;2022-08-19T02:28:35;99495.84;;;24.27;83.26
21234;BME280;10774;42.178;26.578;2022-08-19T02:31:02;99497.69;;;24.42;82.88
21234;BME280;10774;42.178;26.578;2022-08-19T02:33:29;99492.72;;;24.52;83.81
21234;BME280;10774;42.178;26.578;2022-08-19T02:35:54;99471.50;;;24.18;85.99
21234;BME280;10774;42.178;26.578;2022-08-19T02:38:20;99494.94;;;24.20;86.45
21234;BME280;10774;42.178;26.578;2022-08-19T02:40:54;99504.19;;;24.19;87.23
21234;BME280;10774;42.178;26.578;2022-08-19T02:43:21;99502.13;;;24.21;87.52
21234;BME280;10774;42.178;26.578;2022-08-19T02:45:47;99495.72;;;24.14;88.60
21234;BME280;10774;42.178;26.578;2022-08-19T02:48:15;99512.94;;;23.87;90.54
21234;BME280;10774;42.178;26.578;2022-08-19T02:50:42;99503.41;;;23.83;90.64
21234;BME280;10774;42.178;26.578;2022-08-19T02:53:08;99507.91;;;23.54;92.58
21234;BME280;10774;42.178;26.578;2022-08-19T02:55:34;99529.19;;;23.52;92.82
21234;BME280;10774;42.178;26.578;2022-08-19T02:58:00;99509.56;;;23.04;96.05
21234;BME280;10774;42.178;26.578;2022-08-19T03:00:26;99535.34;;;22.95;97.94
21234;BME280;10774;42.178;26.578;2022-08-19T03:02:52;99536.66;;;23.43;94.93
21234;BME280;10774;42.178;26.578;2022-08-19T03:05:17;99542.69;;;23.39;94.07
21234;BME280;10774;42.178;26.578;2022-08-19T03:07:43;99536.47;;;23.01;96.43
21234;BME280;10774;42.178;26.578;2022-08-19T03:10:09;99540.31;;;23.36;94.14
21234;BME280;10774;42.178;26.578;2022-08-19T03:12:37;99539.19;;;23.45;93.87
21234;BME280;10774;42.178;26.578;2022-08-19T03:15:05;99532.72;;;23.16;95.02
21234;BME280;10774;42.178;26.578;2022-08-19T03:17:33;99534.19;;;23.34;94.61
21234;BME280;10774;42.178;26.578;2022-08-19T03:19:58;99541.69;;;23.10;96.25
21234;BME280;10774;42.178;26.578;2022-08-19T03:22:24;99547.19;;;22.87;97.68
21234;BME280;10774;42.178;26.578;2022-08-19T03:24:50;99539.78;;;22.96;97.93
21234;BME280;10774;42.178;26.578;2022-08-19T03:27:16;99540.34;;;23.06;96.80
21234;BME280;10774;42.178;26.578;2022-08-19T03:29:43;99552.81;;;23.38;95.17
21234;BME280;10774;42.178;26.578;2022-08-19T03:32:09;99557.41;;;23.67;93.01
21234;BME280;10774;42.178;26.578;2022-08-19T03:34:37;99553.66;;;23.68;92.72
21234;BME280;10774;42.178;26.578;2022-08-19T03:37:06;99558.22;;;23.83;91.96
21234;BME280;10774;42.178;26.578;2022-08-19T03:39:33;99551.31;;;23.87;91.58
21234;BME280;10774;42.178;26.578;2022-08-19T03:41:59;99552.66;;;24.12;89.70
21234;BME280;10774;42.178;26.578;2022-08-19T03:44:28;99556.81;;;24.08;88.61
21234;BME280;10774;42.178;26.578;2022-08-19T03:46:56;99567.47;;;24.18;88.50
21234;BME280;10774;42.178;26.578;2022-08-19T03:49:24;99562.03;;;24.24;87.94
21234;BME280;10774;42.178;26.578;2022-08-19T03:51:51;99563.91;;;24.39;87.41
21234;BME280;10774;42.178;26.578;2022-08-19T03:54:21;99569.03;;;24.42;87.42
21234;BME280;10774;42.178;26.578;2022-08-19T03:56:50;99573.63;;;24.41;87.36
21234;BME280;10774;42.178;26.578;2022-08-19T03:59:26;99575.03;;;24.52;86.99
21234;BME280;10774;42.178;26.578;2022-08-19T04:01:57;99567.38;;;24.47;86.23
21234;BME280;10774;42.178;26.578;2022-08-19T04:04:23;99574.66;;;24.62;85.80
21234;BME280;10774;42.178;26.578;2022-08-19T04:06:49;99578.34;;;24.69;84.51
21234;BME280;10774;42.178;26.578;2022-08-19T04:09:16;99582.47;;;24.37;86.62
21234;BME280;10774;42.178;26.578;2022-08-19T04:11:48;99586.72;;;24.03;88.47
21234;BME280;10774;42.178;26.578;2022-08-19T04:14:19;99583.16;;;23.88;88.72
21234;BME280;10774;42.178;26.578;2022-08-19T04:16:46;99592.66;;;23.70;89.40
21234;BME280;10774;42.178;26.578;2022-08-19T04:19:13;99597.91;;;23.87;88.81
21234;BME280;10774;42.178;26.578;2022-08-19T04:21:39;99594.94;;;24.03;87.46
21234;BME280;10774;42.178;26.578;2022-08-19T04:24:05;99594.56;;;24.06;86.56
21234;BME280;10774;42.178;26.578;2022-08-19T04:26:34;99590.19;;;23.76;88.04
21234;BME280;10774;42.178;26.578;2022-08-19T04:29:05;99598.22;;;23.77;88.29
21234;BME280;10774;42.178;26.578;2022-08-19T04:31:32;99581.75;;;23.92;87.89
21234;BME280;10774;42.178;26.578;2022-08-19T04:34:03;99591.25;;;24.11;87.57
21234;BME280;10774;42.178;26.578;2022-08-19T04:36:33;99600.00;;;23.85;87.69
21234;BME280;10774;42.178;26.578;2022-08-19T04:39:06;99603.41;;;23.87;88.13
21234;BME280;10774;42.178;26.578;2022-08-19T04:41:33;99607.13;;;23.64;88.99
21234;BME280;10774;42.178;26.578;2022-08-19T04:44:17;99598.91;;;23.64;89.06
21234;BME280;10774;42.178;26.578;2022-08-19T04:46:45;99588.81;;;24.01;86.63
21234;BME280;10774;42.178;26.578;2022-08-19T04:49:12;99586.34;;;24.27;84.65
21234;BME280;10774;42.178;26.578;2022-08-19T04:51:40;99597.13;;;24.29;85.13
21234;BME280;10774;42.178;26.578;2022-08-19T04:54:06;99591.28;;;23.96;84.27
21234;BME280;10774;42.178;26.578;2022-08-19T04:56:32;99598.47;;;23.97;85.51
21234;BME280;10774;42.178;26.578;2022-08-19T04:58:59;99600.31;;;24.11;83.34
21234;BME280;10774;42.178;26.578;2022-08-19T05:01:29;99591.41;;;24.45;80.88
21234;BME280;10774;42.178;26.578;2022-08-19T05:03:55;99597.91;;;24.23;82.62
21234;BME280;10774;42.178;26.578;2022-08-19T05:06:22;99587.25;;;24.13;82.61
21234;BME280;10774;42.178;26.578;2022-08-19T05:08:48;99591.81;;;24.06;83.47
21234;BME280;10774;42.178;26.578;2022-08-19T05:11:19;99595.03;;;24.10;83.61
21234;BME280;10774;42.178;26.578;2022-08-19T05:13:48;99603.72;;;24.13;85.07
21234;BME280;10774;42.178;26.578;2022-08-19T05:16:17;99570.53;;;24.30;82.98
21234;BME280;10774;42.178;26.578;2022-08-19T05:18:43;99597.78;;;24.31;83.98
21234;BME280;10774;42.178;26.578;2022-08-19T05:21:29;99608.53;;;24.69;83.21
21234;BME280;10774;42.178;26.578;2022-08-19T05:24:14;99598.72;;;24.60;83.27
21234;BME280;10774;42.178;26.578;2022-08-19T05:26:44;99608.41;;;25.05;81.22
21234;BME280;10774;42.178;26.578;2022-08-19T05:29:13;99603.63;;;24.92;81.40
21234;BME280;10774;42.178;26.578;2022-08-19T05:31:39;99609.81;;;25.22;80.55
21234;BME280;10774;42.178;26.578;2022-08-19T05:34:05;99600.75;;;25.63;78.19
21234;BME280;10774;42.178;26.578;2022-08-19T05:36:35;99600.91;;;25.90;76.53
21234;BME280;10774;42.178;26.578;2022-08-19T05:39:03;99606.88;;;26.13;76.14
21234;BME280;10774;42.178;26.578;2022-08-19T05:41:29;99604.28;;;26.53;74.56
21234;BME280;10774;42.178;26.578;2022-08-19T05:44:01;99610.84;;;26.85;71.72
21234;BME280;10774;42.178;26.578;2022-08-19T05:46:28;99596.84;;;26.60;72.42
21234;BME280;10774;42.178;26.578;2022-08-19T05:48:54;99607.16;;;26.38;74.69
21234;BME280;10774;42.178;26.578;2022-08-19T05:51:22;99605.53;;;26.57;73.67
21234;BME280;10774;42.178;26.578;2022-08-19T05:53:48;99600.66;;;26.72;73.26
21234;BME280;10774;42.178;26.578;2022-08-19T05:56:15;99582.75;;;26.08;74.88
21234;BME280;10774;42.178;26.578;2022-08-19T05:58:42;99595.56;;;25.81;76.90
21234;BME280;10774;42.178;26.578;2022-08-19T06:01:11;99598.75;;;25.85;77.63
21234;BME280;10774;42.178;26.578;2022-08-19T06:03:37;99601.66;;;26.31;74.89
21234;BME280;10774;42.178;26.578;2022-08-19T06:06:03;99602.78;;;26.70;74.71
21234;BME280;10774;42.178;26.578;2022-08-19T06:08:29;99593.44;;;27.04;73.16
21234;BME280;10774;42.178;26.578;2022-08-19T06:10:55;99603.22;;;26.87;74.76
21234;BME280;10774;42.178;26.578;2022-08-19T06:13:21;99605.31;;;27.05;73.42
21234;BME280;10774;42.178;26.578;2022-08-19T06:15:48;99597.69;;;26.94;73.78
21234;BME280;10774;42.178;26.578;2022-08-19T06:18:14;99602.16;;;26.68;74.18
21234;BME280;10774;42.178;26.578;2022-08-19T06:20:41;99606.94;;;26.40;76.95
21234;BME280;10774;42.178;26.578;2022-08-19T06:23:06;99597.25;;;26.57;75.91
21234;BME280;10774;42.178;26.578;2022-08-19T06:25:33;99593.44;;;27.24;73.12
21234;BME280;10774;42.178;26.578;2022-08-19T06:27:58;99595.44;;;27.82;70.40
21234;BME280;10774;42.178;26.578;2022-08-19T06:30:24;99591.41;;;27.84;67.59
21234;BME280;10774;42.178;26.578;2022-08-19T06:32:49;99593.16;;;28.17;67.06
21234;BME280;10774;42.178;26.578;2022-08-19T06:35:15;99587.91;;;28.40;67.18
21234;BME280;10774;42.178;26.578;2022-08-19T06:37:40;99594.41;;;28.14;67.92
21234;BME280;10774;42.178;26.578;2022-08-19T06:40:07;99593.78;;;28.51;62.90
21234;BME280;10774;42.178;26.578;2022-08-19T06:42:37;99585.50;;;28.51;61.43
21234;BME280;10774;42.178;26.578;2022-08-19T06:45:06;99588.19;;;28.64;57.69
21234;BME280;10774;42.178;26.578;2022-08-19T06:47:33;99594.84;;;28.81;57.40
21234;BME280;10774;42.178;26.578;2022-08-19T06:49:59;99587.09;;;28.97;56.58
21234;BME280;10774;42.178;26.578;2022-08-19T06:52:29;99590.00;;;29.27;56.30
21234;BME280;10774;42.178;26.578;2022-08-19T06:54:55;99580.13;;;29.56;55.40
21234;BME280;10774;42.178;26.578;2022-08-19T06:57:22;99584.66;;;29.25;54.49
21234;BME280;10774;42.178;26.578;2022-08-19T06:59:48;99583.47;;;29.39;54.67
21234;BME280;10774;42.178;26.578;2022-08-19T07:02:13;99583.63;;;29.44;54.15
21234;BME280;10774;42.178;26.578;2022-08-19T07:04:39;99578.38;;;29.18;54.76
21234;BME280;10774;42.178;26.578;2022-08-19T07:07:10;99577.13;;;29.14;56.06
21234;BME280;10774;42.178;26.578;2022-08-19T07:09:38;99576.47;;;29.74;55.43
21234;BME280;10774;42.178;26.578;2022-08-19T07:12:06;99576.25;;;29.38;52.74
21234;BME280;10774;42.178;26.578;2022-08-19T07:14:32;99594.41;;;29.71;52.70
21234;BME280;10774;42.178;26.578;2022-08-19T07:17:02;99590.78;;;29.89;52.19
21234;BME280;10774;42.178;26.578;2022-08-19T07:19:29;99588.63;;;29.91;51.89
21234;BME280;10774;42.178;26.578;2022-08-19T07:21:55;99588.78;;;30.26;50.48
21234;BME280;10774;42.178;26.578;2022-08-19T07:24:24;99591.44;;;30.21;50.66
21234;BME280;10774;42.178;26.578;2022-08-19T07:26:51;99573.50;;;29.57;51.71
21234;BME280;10774;42.178;26.578;2022-08-19T07:29:17;99579.03;;;29.75;49.53
21234;BME280;10774;42.178;26.578;2022-08-19T07:31:43;99585.63;;;29.92;49.84
21234;BME280;10774;42.178;26.578;2022-08-19T07:34:10;99589.47;;;29.91;49.47
21234;BME280;10774;42.178;26.578;2022-08-19T07:36:39;99579.50;;;29.72;49.55
21234;BME280;10774;42.178;26.578;2022-08-19T07:39:09;99579.00;;;29.93;50.02
21234;BME280;10774;42.178;26.578;2022-08-19T07:41:35;99584.56;;;30.12;49.76
21234;BME280;10774;42.178;26.578;2022-08-19T07:44:03;99578.22;;;30.65;48.82
21234;BME280;10774;42.178;26.578;2022-08-19T07:46:31;99579.34;;;30.34;46.84
21234;BME280;10774;42.178;26.578;2022-08-19T07:48:57;99573.13;;;29.90;48.50
21234;BME280;10774;42.178;26.578;2022-08-19T07:51:23;99584.13;;;30.08;48.07
21234;BME280;10774;42.178;26.578;2022-08-19T07:53:49;99570.78;;;29.87;48.09
21234;BME280;10774;42.178;26.578;2022-08-19T07:56:19;99581.72;;;30.30;47.23
21234;BME280;10774;42.178;26.578;2022-08-19T07:58:47;99572.59;;;30.71;47.60
21234;BME280;10774;42.178;26.578;2022-08-19T08:01:19;99555.13;;;30.83;46.08
21234;BME280;10774;42.178;26.578;2022-08-19T08:03:46;99568.16;;;31.29;45.22
21234;BME280;10774;42.178;26.578;2022-08-19T08:06:30;99562.91;;;31.68;44.72
21234;BME280;10774;42.178;26.578;2022-08-19T08:09:17;99563.56;;;31.46;44.43
21234;BME280;10774;42.178;26.578;2022-08-19T08:12:02;99568.75;;;31.19;43.97
21234;BME280;10774;42.178;26.578;2022-08-19T08:14:35;99566.13;;;31.01;44.68
21234;BME280;10774;42.178;26.578;2022-08-19T08:17:05;99561.75;;;31.05;43.98
21234;BME280;10774;42.178;26.578;2022-08-19T08:19:30;99562.84;;;31.39;45.16
21234;BME280;10774;42.178;26.578;2022-08-19T08:21:58;99575.56;;;31.64;43.37
21234;BME280;10774;42.178;26.578;2022-08-19T08:24:25;99560.75;;;31.82;43.89
21234;BME280;10774;42.178;26.578;2022-08-19T08:26:51;99548.63;;;31.12;43.32
21234;BME280;10774;42.178;26.578;2022-08-19T08:29:16;99562.88;;;31.28;43.59
21234;BME280;10774;42.178;26.578;2022-08-19T08:31:43;99565.00;;;31.14;44.02
21234;BME280;10774;42.178;26.578;2022-08-19T08:34:11;99553.44;;;31.17;43.71
21234;BME280;10774;42.178;26.578;2022-08-19T08:36:43;99554.25;;;31.64;42.85
21234;BME280;10774;42.178;26.578;2022-08-19T08:39:12;99556.41;;;31.62;43.96
21234;BME280;10774;42.178;26.578;2022-08-19T08:47:00;99561.88;;;31.22;43.80
21234;BME280;10774;42.178;26.578;2022-08-19T08:49:49;99559.44;;;31.61;43.07
21234;BME280;10774;42.178;26.578;2022-08-19T08:52:20;99560.28;;;31.61;42.37
21234;BME280;10774;42.178;26.578;2022-08-19T08:54:48;99553.09;;;31.02;43.55
21234;BME280;10774;42.178;26.578;2022-08-19T08:57:22;99551.38;;;31.59;43.07
21234;BME280;10774;42.178;26.578;2022-08-19T08:59:50;99556.13;;;31.75;41.26
21234;BME280;10774;42.178;26.578;2022-08-19T09:02:18;99530.81;;;32.29;40.76
21234;BME280;10774;42.178;26.578;2022-08-19T09:04:44;99533.16;;;32.49;41.14
21234;BME280;10774;42.178;26.578;2022-08-19T09:09:42;99529.94;;;30.96;42.01
21234;BME280;10774;42.178;26.578;2022-08-19T09:12:18;99548.59;;;31.24;42.08
21234;BME280;10774;42.178;26.578;2022-08-19T09:14:50;99548.47;;;31.94;42.13
21234;BME280;10774;42.178;26.578;2022-08-19T09:17:20;99535.00;;;32.15;40.71
21234;BME280;10774;42.178;26.578;2022-08-19T09:22:19;99543.13;;;32.33;39.63
21234;BME280;10774;42.178;26.578;2022-08-19T09:24:48;99539.66;;;32.26;40.68
21234;BME280;10774;42.178;26.578;2022-08-19T09:27:14;99530.03;;;32.79;40.82
21234;BME280;10774;42.178;26.578;2022-08-19T09:29:39;99540.41;;;33.00;37.19
21234;BME280;10774;42.178;26.578;2022-08-19T09:32:05;99530.69;;;32.36;39.40
21234;BME280;10774;42.178;26.578;2022-08-19T09:34:32;99528.25;;;32.73;39.39
21234;BME280;10774;42.178;26.578;2022-08-19T09:36:58;99531.44;;;32.48;38.36
21234;BME280;10774;42.178;26.578;2022-08-19T09:39:25;99526.59;;;32.38;37.73
21234;BME280;10774;42.178;26.578;2022-08-19T09:41:51;99524.38;;;32.74;37.45
21234;BME280;10774;42.178;26.578;2022-08-19T09:44:18;99521.84;;;33.06;37.76
21234;BME280;10774;42.178;26.578;2022-08-19T09:46:45;99541.94;;;32.91;36.94
21234;BME280;10774;42.178;26.578;2022-08-19T09:49:17;99538.06;;;32.92;36.36
21234;BME280;10774;42.178;26.578;2022-08-19T09:51:43;99537.63;;;33.00;37.65
21234;BME280;10774;42.178;26.578;2022-08-19T09:54:09;99534.31;;;33.20;36.02
21234;BME280;10774;42.178;26.578;2022-08-19T09:56:34;99505.34;;;32.83;36.88
21234;BME280;10774;42.178;26.578;2022-08-19T09:59:01;99528.34;;;33.12;37.16
21234;BME280;10774;42.178;26.578;2022-08-19T10:01:30;99522.53;;;32.63;37.65
21234;BME280;10774;42.178;26.578;2022-08-19T10:03:58;99528.19;;;33.40;36.85
21234;BME280;10774;42.178;26.578;2022-08-19T10:06:26;99533.00;;;33.67;36.28
21234;BME280;10774;42.178;26.578;2022-08-19T10:08:54;99522.84;;;33.55;35.85
21234;BME280;10774;42.178;26.578;2022-08-19T10:11:20;99515.09;;;33.19;36.29
21234;BME280;10774;42.178;26.578;2022-08-19T10:13:46;99520.56;;;33.52;35.93
21234;BME280;10774;42.178;26.578;2022-08-19T10:16:14;99521.00;;;33.22;35.88
21234;BME280;10774;42.178;26.578;2022-08-19T10:18:41;99518.97;;;32.84;35.04
21234;BME280;10774;42.178;26.578;2022-08-19T10:23:41;99520.31;;;33.76;35.10
21234;BME280;10774;42.178;26.578;2022-08-19T10:26:15;99522.88;;;34.58;34.77
21234;BME280;10774;42.178;26.578;2022-08-19T10:28:41;99530.22;;;34.70;33.14
21234;BME280;10774;42.178;26.578;2022-08-19T10:31:09;99518.78;;;33.90;34.25
21234;BME280;10774;42.178;26.578;2022-08-19T10:33:36;99510.28;;;34.88;34.23
21234;BME280;10774;42.178;26.578;2022-08-19T10:36:14;99518.19;;;34.96;32.38
21234;BME280;10774;42.178;26.578;2022-08-19T10:38:40;99506.59;;;34.45;33.25
21234;BME280;10774;42.178;26.578;2022-08-19T10:41:23;99515.69;;;34.68;33.74
21234;BME280;10774;42.178;26.578;2022-08-19T10:43:54;99508.84;;;33.94;34.80
21234;BME280;10774;42.178;26.578;2022-08-19T10:46:20;99500.28;;;34.28;34.38
21234;BME280;10774;42.178;26.578;2022-08-19T10:48:47;99518.88;;;34.44;34.85
21234;BME280;10774;42.178;26.578;2022-08-19T10:51:13;99515.94;;;34.34;34.64
21234;BME280;10774;42.178;26.578;2022-08-19T10:53:58;99492.50;;;34.30;34.40
21234;BME280;10774;42.178;26.578;2022-08-19T10:56:26;99500.28;;;34.55;34.10
21234;BME280;10774;42.178;26.578;2022-08-19T10:59:10;99499.94;;;35.26;33.65
21234;BME280;10774;42.178;26.578;2022-08-19T11:01:38;99508.84;;;35.18;33.45
21234;BME280;10774;42.178;26.578;2022-08-19T11:04:04;99496.81;;;35.17;32.58
21234;BME280;10774;42.178;26.578;2022-08-19T11:06:32;99509.13;;;34.47;33.94
21234;BME280;10774;42.178;26.578;2022-08-19T11:08:58;99497.69;;;34.48;33.69
21234;BME280;10774;42.178;26.578;2022-08-19T11:11:26;99488.16;;;33.90;34.05
21234;BME280;10774;42.178;26.578;2022-08-19T11:13:52;99497.00;;;34.36;33.92
21234;BME280;10774;42.178;26.578;2022-08-19T11:16:23;99496.19;;;34.08;34.45
21234;BME280;10774;42.178;26.578;2022-08-19T11:18:51;99494.78;;;34.65;33.44
21234;BME280;10774;42.178;26.578;2022-08-19T11:21:20;99489.19;;;35.50;33.21
21234;BME280;10774;42.178;26.578;2022-08-19T11:23:48;99482.41;;;36.08;31.23
21234;BME280;10774;42.178;26.578;2022-08-19T11:26:15;99483.44;;;35.87;32.34
21234;BME280;10774;42.178;26.578;2022-08-19T11:28:41;99480.72;;;36.02;31.69
21234;BME280;10774;42.178;26.578;2022-08-19T11:31:12;99475.78;;;34.99;33.14
21234;BME280;10774;42.178;26.578;2022-08-19T11:33:38;99479.84;;;35.24;33.96
21234;BME280;10774;42.178;26.578;2022-08-19T11:36:04;99472.44;;;34.60;34.02
21234;BME280;10774;42.178;26.578;2022-08-19T11:38:29;99483.16;;;34.78;34.18
21234;BME280;10774;42.178;26.578;2022-08-19T11:41:00;99466.50;;;35.36;33.04
21234;BME280;10774;42.178;26.578;2022-08-19T11:43:27;99468.91;;;35.90;32.14
21234;BME280;10774;42.178;26.578;2022-08-19T11:45:54;99463.28;;;35.75;32.22
21234;BME280;10774;42.178;26.578;2022-08-19T11:48:20;99467.91;;;34.91;32.39
21234;BME280;10774;42.178;26.578;2022-08-19T11:50:49;99464.25;;;34.91;33.71
21234;BME280;10774;42.178;26.578;2022-08-19T11:53:19;99461.44;;;34.85;33.20
21234;BME280;10774;42.178;26.578;2022-08-19T11:55:46;99458.19;;;34.56;34.24
21234;BME280;10774;42.178;26.578;2022-08-19T11:58:13;99452.97;;;35.70;33.29
21234;BME280;10774;42.178;26.578;2022-08-19T12:00:40;99444.66;;;35.18;33.77
21234;BME280;10774;42.178;26.578;2022-08-19T12:03:06;99447.50;;;35.38;33.08
21234;BME280;10774;42.178;26.578;2022-08-19T12:05:31;99455.22;;;35.78;31.78
21234;BME280;10774;42.178;26.578;2022-08-19T12:07:57;99460.31;;;36.17;31.63
21234;BME280;10774;42.178;26.578;2022-08-19T12:10:23;99451.09;;;36.11;31.83
21234;BME280;10774;42.178;26.578;2022-08-19T12:12:49;99443.59;;;36.43;31.51
21234;BME280;10774;42.178;26.578;2022-08-19T12:15:15;99439.41;;;36.55;31.57
21234;BME280;10774;42.178;26.578;2022-08-19T12:17:41;99430.94;;;35.89;31.30
21234;BME280;10774;42.178;26.578;2022-08-19T12:20:10;99428.22;;;36.25;31.79
21234;BME280;10774;42.178;26.578;2022-08-19T12:22:38;99432.06;;;36.95;31.19
21234;BME280;10774;42.178;26.578;2022-08-19T12:25:07;99431.56;;;36.68;31.41
21234;BME280;10774;42.178;26.578;2022-08-19T12:27:33;99424.00;;;36.22;30.81
21234;BME280;10774;42.178;26.578;2022-08-19T12:29:58;99426.97;;;35.54;32.02
21234;BME280;10774;42.178;26.578;2022-08-19T12:32:27;99434.84;;;35.88;31.25
21234;BME280;10774;42.178;26.578;2022-08-19T12:34:52;99428.53;;;35.30;32.35
21234;BME280;10774;42.178;26.578;2022-08-19T12:37:18;99430.38;;;35.82;31.45
21234;BME280;10774;42.178;26.578;2022-08-19T12:39:43;99426.72;;;35.66;31.13
21234;BME280;10774;42.178;26.578;2022-08-19T12:42:13;99420.38;;;36.68;30.66
21234;BME280;10774;42.178;26.578;2022-08-19T12:44:40;99426.78;;;36.68;30.12
21234;BME280;10774;42.178;26.578;2022-08-19T12:47:06;99422.06;;;36.07;30.62
21234;BME280;10774;42.178;26.578;2022-08-19T12:49:33;99414.75;;;35.91;30.97
21234;BME280;10774;42.178;26.578;2022-08-19T12:52:00;99415.25;;;35.68;31.27
21234;BME280;10774;42.178;26.578;2022-08-19T12:54:27;99423.09;;;35.71;30.50
21234;BME280;10774;42.178;26.578;2022-08-19T12:56:56;99424.25;;;36.77;29.66
21234;BME280;10774;42.178;26.578;2022-08-19T12:59:21;99414.50;;;36.54;30.23
21234;BME280;10774;42.178;26.578;2022-08-19T13:01:47;99424.16;;;35.49;32.27
21234;BME280;10774;42.178;26.578;2022-08-19T13:04:12;99425.13;;;35.18;32.48
21234;BME280;10774;42.178;26.578;2022-08-19T13:06:38;99427.81;;;35.60;31.20
21234;BME280;10774;42.178;26.578;2022-08-19T13:09:05;99413.09;;;36.10;31.43